Time;durP1;ratioP1;P1;durP2;ratioP2;P2;SDS_P1;SDS_P2;PMS_P1;PMS_P2;Temp;Humidity;BMP_temperature;BMP_pressure;BME280_temperature;BME280_humidity;BME280_pressure;Samples;Min_cycle;Max_cycle;Signal;HPM_P1;HPM_P2
2022/10/01 00:00:55;;;;;;;1.60;0.90;;;;;;;;;;5108601;28;20499;-67
2022/10/01 00:03:35;;;;;;;5.03;1.08;;;;;;;;;;5102703;28;20404;-65
2022/10/01 00:06:12;;;;;;;4.38;0.88;;;;;;;;;;5107177;28;20050;-67
2022/10/01 00:08:39;;;;;;;2.85;1.00;;;;;;;;;;5101524;28;20044;-66
2022/10/01 00:11:25;;;;;;;4.65;0.95;;;;;;;;;;5106483;28;20052;-65
2022/10/01 00:13:52;;;;;;;1.00;0.65;;;;;;;;;;5100428;28;20054;-69
2022/10/01 00:16:24;;;;;;;1.15;0.90;;;;;;;;;;5106630;28;20122;-64
2022/10/01 00:18:50;;;;;;;1.00;0.75;;;;;;;;;;5102043;28;20044;-65
2022/10/01 00:21:21;;;;;;;2.15;0.80;;;;;;;;;;5103154;28;20040;-63
2022/10/01 00:23:53;;;;;;;3.15;1.10;;;;;;;;;;5108778;28;20119;-66
2022/10/01 00:26:21;;;;;;;2.97;0.88;;;;;;;;;;5108810;27;20096;-69
2022/10/01 00:28:53;;;;;;;3.38;0.90;;;;;;;;;;5110433;28;20040;-65
2022/10/01 00:31:20;;;;;;;3.88;0.90;;;;;;;;;;5113463;28;20422;-64
2022/10/01 00:33:46;;;;;;;1.60;0.80;;;;;;;;;;5109985;28;20445;-63
2022/10/01 00:36:12;;;;;;;5.40;1.20;;;;;;;;;;5112282;28;20152;-66
2022/10/01 00:38:41;;;;;;;1.50;0.90;;;;;;;;;;5108958;28;20504;-69
2022/10/01 00:41:08;;;;;;;2.35;0.88;;;;;;;;;;5107191;28;20131;-74
2022/10/01 00:43:38;;;;;;;4.40;0.88;;;;;;;;;;5110801;28;20162;-63
2022/10/01 00:46:14;;;;;;;3.78;0.75;;;;;;;;;;5112410;28;20043;-66
2022/10/01 00:48:56;;;;;;;1.00;0.68;;;;;;;;;;5110418;28;20044;-65
2022/10/01 00:51:23;;;;;;;2.63;1.08;;;;;;;;;;5110832;27;20039;-65
2022/10/01 00:53:49;;;;;;;2.58;0.90;;;;;;;;;;5106373;28;20063;-68
2022/10/01 00:56:15;;;;;;;4.88;0.90;;;;;;;;;;5111956;28;20134;-62
2022/10/01 00:58:42;;;;;;;2.67;0.90;;;;;;;;;;5111704;28;20055;-62
2022/10/01 01:01:08;;;;;;;2.13;1.00;;;;;;;;;;5108379;28;20105;-64
2022/10/01 01:03:34;;;;;;;1.25;0.90;;;;;;;;;;5113022;28;20489;-66
2022/10/01 01:06:00;;;;;;;2.75;1.20;;;;;;;;;;5112607;28;20081;-67
2022/10/01 01:08:26;;;;;;;3.50;1.15;;;;;;;;;;5107625;28;20047;-68
2022/10/01 01:11:19;;;;;;;2.08;0.90;;;;;;;;;;5112160;28;20046;-64
2022/10/01 01:14:07;;;;;;;4.60;0.90;;;;;;;;;;5112726;27;20036;-63
2022/10/01 01:16:45;;;;;;;2.47;0.90;;;;;;;;;;5112012;28;20065;-63
2022/10/01 01:19:34;;;;;;;2.08;0.82;;;;;;;;;;5111276;28;20043;-61
2022/10/01 01:22:04;;;;;;;1.40;0.82;;;;;;;;;;5077188;28;20044;-61
2022/10/01 01:24:50;;;;;;;2.63;1.05;;;;;;;;;;5108890;28;20047;-62
2022/10/01 01:27:53;;;;;;;2.20;0.60;;;;;;;;;;5106240;28;20047;-64
2022/10/01 01:30:20;;;;;;;2.72;1.05;;;;;;;;;;5102387;28;20047;-62
2022/10/01 01:32:54;;;;;;;1.67;0.60;;;;;;;;;;5105537;28;20055;-62
2022/10/01 01:35:23;;;;;;;;;;;;;;;;;;5111957;28;20401;-62
2022/10/01 01:37:57;;;;;;;2.88;0.70;;;;;;;;;;5112468;28;19927;-69
2022/10/01 01:40:24;;;;;;;;;;;;;;;;;;5109187;28;20035;-69
2022/10/01 01:42:52;;;;;;;0.80;0.50;;;;;;;;;;5106188;28;20301;-66
2022/10/01 01:45:23;;;;;;;3.53;0.70;;;;;;;;;;5110407;28;20043;-66
2022/10/01 01:47:54;;;;;;;1.35;0.52;;;;;;;;;;5111494;28;20039;-66
2022/10/01 01:50:24;;;;;;;1.05;0.60;;;;;;;;;;5111102;28;20044;-61
2022/10/01 01:52:53;;;;;;;1.45;0.80;;;;;;;;;;5110587;28;20039;-62
2022/10/01 01:55:23;;;;;;;1.50;0.60;;;;;;;;;;5106566;28;20362;-62
2022/10/01 01:57:50;;;;;;;1.02;0.60;;;;;;;;;;5110466;28;20044;-63
2022/10/01 02:00:16;;;;;;;1.20;0.73;;;;;;;;;;5096103;28;20052;-63
2022/10/01 02:02:50;;;;;;;1.75;0.50;;;;;;;;;;5110687;28;20047;-62
2022/10/01 02:05:18;;;;;;;;;;;;;;;;;;5111345;28;20043;-61
2022/10/01 02:08:06;;;;;;;1.65;0.70;;;;;;;;;;5106661;28;20151;-66
2022/10/01 02:10:58;;;;;;;0.73;0.40;;;;;;;;;;5099125;28;20077;-68
2022/10/01 02:13:24;;;;;;;2.13;0.60;;;;;;;;;;5101373;28;20040;-65
2022/10/01 02:16:03;;;;;;;1.77;0.80;;;;;;;;;;5109245;27;20101;-65
2022/10/01 02:18:42;;;;;;;0.68;0.40;;;;;;;;;;5109855;28;20047;-71
2022/10/01 02:21:14;;;;;;;1.88;0.75;;;;;;;;;;5110810;28;20050;-62
2022/10/01 02:23:58;;;;;;;1.05;0.60;;;;;;;;;;5101019;28;20056;-67
2022/10/01 02:26:27;;;;;;;0.88;0.50;;;;;;;;;;5103900;28;20123;-62
2022/10/01 02:28:57;;;;;;;3.40;0.60;;;;;;;;;;5107519;28;20075;-68
2022/10/01 02:31:23;;;;;;;0.60;0.50;;;;;;;;;;5105625;28;20035;-63
2022/10/01 02:33:52;;;;;;;1.63;0.55;;;;;;;;;;5109305;28;20089;-72
2022/10/01 02:36:19;;;;;;;0.55;0.52;;;;;;;;;;5106728;28;20044;-63
2022/10/01 02:38:46;;;;;;;1.83;0.70;;;;;;;;;;5109117;28;20519;-62
2022/10/01 02:41:16;;;;;;;1.55;0.55;;;;;;;;;;5108550;28;20047;-63
2022/10/01 02:43:52;;;;;;;0.65;0.50;;;;;;;;;;5106327;28;20073;-70
2022/10/01 02:47:06;;;;;;;0.73;0.70;;;;;;;;;;5110000;28;20040;-63
2022/10/01 02:49:34;;;;;;;0.82;0.57;;;;;;;;;;5107849;28;20055;-64
2022/10/01 02:52:26;;;;;;;1.75;0.63;;;;;;;;;;5108536;28;20039;-70
2022/10/01 02:54:59;;;;;;;2.00;0.70;;;;;;;;;;5104069;28;20511;-62
2022/10/01 02:57:28;;;;;;;1.53;0.60;;;;;;;;;;5111115;28;20466;-61
2022/10/01 03:00:00;;;;;;;1.30;0.47;;;;;;;;;;5108030;28;20148;-62
2022/10/01 03:02:28;;;;;;;1.38;0.68;;;;;;;;;;5107007;28;20056;-61
2022/10/01 03:04:58;;;;;;;0.80;0.50;;;;;;;;;;5099702;28;20051;-62
2022/10/01 03:07:30;;;;;;;1.70;0.60;;;;;;;;;;5105950;28;20523;-70
2022/10/01 03:10:04;;;;;;;1.00;0.73;;;;;;;;;;5105728;28;20055;-63
2022/10/01 03:12:30;;;;;;;1.58;0.77;;;;;;;;;;5104918;28;20570;-63
2022/10/01 03:14:56;;;;;;;1.60;0.77;;;;;;;;;;5103876;28;20050;-62
2022/10/01 03:17:22;;;;;;;2.40;0.57;;;;;;;;;;5099025;28;20044;-62
2022/10/01 03:19:48;;;;;;;2.25;0.68;;;;;;;;;;5104347;28;20043;-64
2022/10/01 03:22:17;;;;;;;2.10;0.95;;;;;;;;;;5098101;28;20130;-64
2022/10/01 03:24:43;;;;;;;1.27;0.85;;;;;;;;;;5098677;28;20164;-69
2022/10/01 03:27:09;;;;;;;1.92;0.80;;;;;;;;;;5108196;28;20055;-61
2022/10/01 03:29:35;;;;;;;0.80;0.50;;;;;;;;;;5107663;27;20039;-62
2022/10/01 03:32:01;;;;;;;1.38;0.68;;;;;;;;;;5101591;28;20039;-67
2022/10/01 03:34:27;;;;;;;2.40;0.70;;;;;;;;;;5102393;28;20036;-62
2022/10/01 03:36:53;;;;;;;2.67;0.80;;;;;;;;;;5102999;28;20096;-63
2022/10/01 03:39:19;;;;;;;2.47;0.90;;;;;;;;;;5081711;28;20052;-65
2022/10/01 03:41:45;;;;;;;4.95;0.95;;;;;;;;;;5102353;28;20119;-63
2022/10/01 03:44:11;;;;;;;3.83;0.77;;;;;;;;;;5107394;28;20036;-64
2022/10/01 03:46:36;;;;;;;3.13;1.02;;;;;;;;;;5108536;28;20048;-63
2022/10/01 03:49:03;;;;;;;3.03;0.70;;;;;;;;;;5102839;28;20074;-61
2022/10/01 03:51:30;;;;;;;1.83;0.90;;;;;;;;;;5105223;27;20071;-63
2022/10/01 03:53:56;;;;;;;2.30;0.68;;;;;;;;;;5106300;28;20038;-64
2022/10/01 03:56:23;;;;;;;1.35;0.80;;;;;;;;;;5106925;28;20046;-65
2022/10/01 03:58:49;;;;;;;1.48;0.85;;;;;;;;;;5110563;28;20551;-70
2022/10/01 04:01:16;;;;;;;1.38;0.70;;;;;;;;;;5105904;28;20039;-66
2022/10/01 04:03:42;;;;;;;5.68;0.70;;;;;;;;;;5106534;28;20386;-62
2022/10/01 04:06:09;;;;;;;4.93;0.70;;;;;;;;;;5108934;28;20477;-63
2022/10/01 04:08:36;;;;;;;1.27;0.70;;;;;;;;;;5101850;28;20060;-65
2022/10/01 04:11:02;;;;;;;1.52;0.70;;;;;;;;;;5095125;28;20036;-70
2022/10/01 04:13:31;;;;;;;2.22;1.27;;;;;;;;;;5102234;28;20047;-62
2022/10/01 04:15:57;;;;;;;3.72;0.80;;;;;;;;;;5108214;28;20075;-70
2022/10/01 04:18:23;;;;;;;2.88;0.70;;;;;;;;;;5106073;28;20082;-62
2022/10/01 04:20:49;;;;;;;6.20;0.77;;;;;;;;;;5095644;28;20048;-65
2022/10/01 04:23:15;;;;;;;2.13;1.10;;;;;;;;;;5099633;28;20052;-62
2022/10/01 04:25:41;;;;;;;1.55;0.90;;;;;;;;;;5101443;28;20061;-68
2022/10/01 04:28:09;;;;;;;5.45;0.70;;;;;;;;;;5108647;28;20035;-63
2022/10/01 04:30:38;;;;;;;2.80;0.98;;;;;;;;;;5107504;28;20046;-61
2022/10/01 04:33:05;;;;;;;4.72;0.90;;;;;;;;;;5104234;28;20489;-66
2022/10/01 04:35:31;;;;;;;2.58;1.42;;;;;;;;;;5106846;28;20043;-62
2022/10/01 04:38:03;;;;;;;3.53;1.00;;;;;;;;;;5105539;28;20393;-62
2022/10/01 04:40:30;;;;;;;4.00;1.13;;;;;;;;;;5103473;28;20047;-61
2022/10/01 04:42:56;;;;;;;2.63;0.93;;;;;;;;;;5093443;28;20501;-65
2022/10/01 04:45:23;;;;;;;2.53;1.00;;;;;;;;;;5105061;28;20451;-63
2022/10/01 04:47:51;;;;;;;1.73;1.10;;;;;;;;;;5105281;28;20131;-67
2022/10/01 04:50:18;;;;;;;2.22;0.95;;;;;;;;;;5102433;28;20035;-63
2022/10/01 04:52:45;;;;;;;2.83;1.00;;;;;;;;;;5101579;28;20800;-63
2022/10/01 04:55:11;;;;;;;2.78;1.00;;;;;;;;;;5104221;28;20039;-68
2022/10/01 04:57:40;;;;;;;2.30;1.27;;;;;;;;;;5104892;28;20043;-65
2022/10/01 05:00:10;;;;;;;4.72;1.60;;;;;;;;;;5098351;28;20048;-62
2022/10/01 05:02:36;;;;;;;5.20;1.40;;;;;;;;;;5101496;28;20100;-62
2022/10/01 05:05:04;;;;;;;6.32;1.52;;;;;;;;;;5104833;28;20043;-62
2022/10/01 05:07:31;;;;;;;6.38;1.23;;;;;;;;;;5107724;28;20265;-66
2022/10/01 05:09:57;;;;;;;4.55;1.30;;;;;;;;;;5107116;28;20457;-63
2022/10/01 05:12:24;;;;;;;2.17;1.15;;;;;;;;;;5107244;28;20048;-66
2022/10/01 05:14:55;;;;;;;3.13;1.10;;;;;;;;;;5106929;28;20052;-64
2022/10/01 05:17:21;;;;;;;5.53;1.33;;;;;;;;;;5107406;28;20035;-67
2022/10/01 05:19:48;;;;;;;2.88;1.30;;;;;;;;;;5109999;28;20063;-71
2022/10/01 05:22:15;;;;;;;4.55;1.38;;;;;;;;;;5110382;28;20101;-64
2022/10/01 05:24:42;;;;;;;5.90;1.40;;;;;;;;;;5098733;28;20192;-67
2022/10/01 05:27:12;;;;;;;3.85;1.50;;;;;;;;;;5108614;28;20047;-62
2022/10/01 05:29:40;;;;;;;4.25;1.38;;;;;;;;;;5101526;28;20040;-64
2022/10/01 05:32:10;;;;;;;5.03;1.20;;;;;;;;;;5098357;28;20046;-66
2022/10/01 05:34:37;;;;;;;4.28;1.65;;;;;;;;;;5111753;28;20043;-64
2022/10/01 05:37:04;;;;;;;1.88;0.95;;;;;;;;;;5111454;28;20103;-66
2022/10/01 05:39:30;;;;;;;4.30;1.30;;;;;;;;;;5107590;28;20466;-63
2022/10/01 05:41:56;;;;;;;1.83;0.90;;;;;;;;;;5104267;28;20051;-68
2022/10/01 05:44:23;;;;;;;5.25;1.20;;;;;;;;;;5105231;28;20051;-63
2022/10/01 05:46:49;;;;;;;2.33;0.90;;;;;;;;;;5111363;28;20043;-63
2022/10/01 05:49:16;;;;;;;3.10;1.10;;;;;;;;;;5106622;28;20054;-63
2022/10/01 05:51:43;;;;;;;3.35;1.17;;;;;;;;;;5104427;28;20101;-63
2022/10/01 05:54:10;;;;;;;3.20;1.10;;;;;;;;;;5102818;28;20104;-62
2022/10/01 05:56:36;;;;;;;1.85;1.10;;;;;;;;;;5108133;28;20072;-64
2022/10/01 05:59:02;;;;;;;3.17;1.20;;;;;;;;;;5109302;28;20035;-63
2022/10/01 06:01:28;;;;;;;8.32;1.33;;;;;;;;;;5101985;28;20401;-70
2022/10/01 06:03:54;;;;;;;3.05;1.17;;;;;;;;;;5104217;28;20123;-64
2022/10/01 06:06:24;;;;;;;6.07;1.50;;;;;;;;;;5104878;28;20107;-67
2022/10/01 06:08:50;;;;;;;5.18;1.20;;;;;;;;;;5106400;28;20059;-63
2022/10/01 06:11:16;;;;;;;3.45;1.13;;;;;;;;;;5102307;28;20040;-64
2022/10/01 06:13:44;;;;;;;4.28;1.40;;;;;;;;;;5108106;28;20047;-63
2022/10/01 06:16:10;;;;;;;2.92;1.30;;;;;;;;;;5107597;28;20047;-64
2022/10/01 06:18:36;;;;;;;7.95;1.23;;;;;;;;;;5109166;28;20459;-68
2022/10/01 06:21:02;;;;;;;5.22;1.00;;;;;;;;;;5102849;28;20039;-65
2022/10/01 06:23:28;;;;;;;3.72;1.00;;;;;;;;;;5105281;28;20089;-66
2022/10/01 06:25:54;;;;;;;7.10;1.45;;;;;;;;;;5105038;28;20481;-64
2022/10/01 06:28:20;;;;;;;6.93;1.20;;;;;;;;;;5109659;28;20043;-66
2022/10/01 06:30:46;;;;;;;2.95;1.48;;;;;;;;;;5107888;28;20475;-65
2022/10/01 06:33:14;;;;;;;3.78;1.23;;;;;;;;;;5102268;28;20619;-71
2022/10/01 06:35:48;;;;;;;5.80;1.40;;;;;;;;;;5106155;28;20040;-67
2022/10/01 06:38:16;;;;;;;9.38;1.63;;;;;;;;;;5100705;28;20044;-66
2022/10/01 06:40:42;;;;;;;3.85;1.60;;;;;;;;;;5101323;28;20055;-64
2022/10/01 06:43:09;;;;;;;7.70;1.90;;;;;;;;;;5102634;28;20044;-65
2022/10/01 06:45:38;;;;;;;4.05;1.73;;;;;;;;;;5108944;28;20150;-70
2022/10/01 06:48:04;;;;;;;7.57;1.40;;;;;;;;;;5106527;28;20385;-73
2022/10/01 06:50:31;;;;;;;3.03;1.50;;;;;;;;;;5103854;27;20496;-67
2022/10/01 06:52:58;;;;;;;6.13;1.40;;;;;;;;;;5098086;28;20048;-67
2022/10/01 06:55:26;;;;;;;4.82;1.40;;;;;;;;;;5105140;28;20067;-68
2022/10/01 06:57:57;;;;;;;11.75;1.60;;;;;;;;;;5101672;28;20043;-64
2022/10/01 07:00:24;;;;;;;3.40;1.50;;;;;;;;;;5099446;28;20051;-62
2022/10/01 07:02:50;;;;;;;4.45;1.55;;;;;;;;;;5106178;28;20429;-65
2022/10/01 07:05:16;;;;;;;5.07;1.40;;;;;;;;;;5104661;28;20055;-68
2022/10/01 07:07:47;;;;;;;3.40;1.42;;;;;;;;;;5102045;28;20055;-63
2022/10/01 07:10:14;;;;;;;5.93;1.63;;;;;;;;;;5103060;28;20043;-67
2022/10/01 07:12:40;;;;;;;3.97;1.75;;;;;;;;;;5107125;28;20044;-64
2022/10/01 07:15:07;;;;;;;3.90;1.80;;;;;;;;;;5101412;28;20046;-67
2022/10/01 07:17:41;;;;;;;5.90;1.50;;;;;;;;;;5104497;28;20096;-68
2022/10/01 07:20:08;;;;;;;8.57;1.60;;;;;;;;;;5103056;28;20047;-66
2022/10/01 07:22:34;;;;;;;7.50;1.42;;;;;;;;;;5103802;28;20047;-67
2022/10/01 07:25:00;;;;;;;8.00;1.90;;;;;;;;;;5098768;28;20040;-67
2022/10/01 07:27:26;;;;;;;10.52;2.50;;;;;;;;;;5106216;28;20092;-74
2022/10/01 07:29:52;;;;;;;3.92;2.00;;;;;;;;;;5095176;27;20059;-63
2022/10/01 07:32:18;;;;;;;4.72;2.10;;;;;;;;;;5096722;28;20051;-71
2022/10/01 07:34:44;;;;;;;5.72;2.10;;;;;;;;;;5096437;28;20044;-78
2022/10/01 07:37:10;;;;;;;6.40;2.25;;;;;;;;;;5103734;28;20048;-68
2022/10/01 07:39:35;;;;;;;5.25;2.10;;;;;;;;;;5095653;28;20047;-68
2022/10/01 07:42:02;;;;;;;4.50;2.15;;;;;;;;;;5103544;28;20051;-63
2022/10/01 07:44:28;;;;;;;7.15;1.98;;;;;;;;;;5105651;28;20061;-66
2022/10/01 07:46:55;;;;;;;3.90;2.05;;;;;;;;;;5101150;28;20044;-72
2022/10/01 07:49:24;;;;;;;4.35;2.00;;;;;;;;;;5101682;28;20048;-66
2022/10/01 07:51:51;;;;;;;6.75;2.30;;;;;;;;;;5104364;28;20036;-76
2022/10/01 07:54:17;;;;;;;8.55;2.45;;;;;;;;;;5093434;28;20817;-72
2022/10/01 07:56:43;;;;;;;7.03;2.30;;;;;;;;;;5101323;28;20091;-67
2022/10/01 07:59:09;;;;;;;7.78;1.95;;;;;;;;;;5100543;28;20056;-70
2022/10/01 08:01:36;;;;;;;9.00;2.40;;;;;;;;;;5098065;28;20424;-71
2022/10/01 08:05:16;;;;;;;4.43;1.77;;;;;;;;;;5099081;28;20054;-66
2022/10/01 08:06:52;;;;;;;8.60;1.83;;;;;;;;;;5097725;28;20116;-64
2022/10/01 08:09:19;;;;;;;3.88;1.75;;;;;;;;;;5093635;28;20485;-71
2022/10/01 08:11:45;;;;;;;11.50;1.80;;;;;;;;;;5101368;28;20079;-65
2022/10/01 08:14:11;;;;;;;4.32;2.05;;;;;;;;;;5100696;28;20082;-63
2022/10/01 08:16:39;;;;;;;7.03;1.60;;;;;;;;;;5097125;28;20492;-67
2022/10/01 08:19:08;;;;;;;7.35;2.00;;;;;;;;;;5098496;28;20044;-67
2022/10/01 08:21:34;;;;;;;20.02;2.67;;;;;;;;;;5095854;28;20166;-75
2022/10/01 08:24:02;;;;;;;14.57;1.80;;;;;;;;;;5097180;28;20047;-66
2022/10/01 08:26:28;;;;;;;4.85;1.30;;;;;;;;;;5098404;28;20047;-65
2022/10/01 08:28:54;;;;;;;7.57;1.80;;;;;;;;;;5103176;28;20039;-66
2022/10/01 08:31:20;;;;;;;4.25;1.55;;;;;;;;;;5104302;28;20077;-64
2022/10/01 08:33:46;;;;;;;2.63;1.35;;;;;;;;;;5109686;28;20044;-67
2022/10/01 08:36:12;;;;;;;3.40;1.48;;;;;;;;;;5103535;28;20032;-66
2022/10/01 08:38:39;;;;;;;7.55;1.50;;;;;;;;;;5101163;28;20420;-73
2022/10/01 08:41:52;;;;;;;6.80;1.50;;;;;;;;;;5099924;28;20789;-64
2022/10/01 08:44:22;;;;;;;8.55;2.13;;;;;;;;;;5035056;28;20400;-66
2022/10/01 08:46:50;;;;;;;8.82;2.47;;;;;;;;;;5033946;28;20395;-69
2022/10/01 08:49:26;;;;;;;7.35;2.75;;;;;;;;;;5021625;28;20057;-73
2022/10/01 08:51:56;;;;;;;11.43;3.65;;;;;;;;;;5028374;28;20108;-63
2022/10/01 08:54:34;;;;;;;10.43;4.90;;;;;;;;;;5037080;28;20129;-66
2022/10/01 08:57:02;;;;;;;14.77;5.30;;;;;;;;;;5038327;28;20059;-64
2022/10/01 08:59:43;;;;;;;20.95;5.90;;;;;;;;;;5034264;28;20064;-69
2022/10/01 09:02:30;;;;;;;19.33;5.75;;;;;;;;;;5031964;28;20458;-73
2022/10/01 09:05:33;;;;;;;17.42;5.60;;;;;;;;;;5014523;28;20450;-69
2022/10/01 09:08:07;;;;;;;13.68;4.35;;;;;;;;;;5032025;28;20805;-67
2022/10/01 09:10:42;;;;;;;8.10;3.75;;;;;;;;;;5038750;28;20041;-68
2022/10/01 09:13:25;;;;;;;7.40;2.72;;;;;;;;;;5030804;28;20054;-68
2022/10/01 09:16:31;;;;;;;6.85;2.85;;;;;;;;;;5027479;28;20123;-65
2022/10/01 09:19:05;;;;;;;8.15;2.55;;;;;;;;;;5042786;28;20584;-66
2022/10/01 09:21:54;;;;;;;8.18;1.90;;;;;;;;;;5088376;28;20073;-64
2022/10/01 09:24:42;;;;;;;6.63;2.33;;;;;;;;;;5102050;28;20120;-69
2022/10/01 09:27:13;;;;;;;6.22;2.60;;;;;;;;;;5109927;28;20047;-70
2022/10/01 09:29:46;;;;;;;2.85;1.17;;;;;;;;;;5111706;28;20051;-68
2022/10/01 09:32:16;;;;;;;1.85;0.90;;;;;;;;;;5103234;28;20127;-67
2022/10/01 09:34:44;;;;;;;4.07;1.02;;;;;;;;;;5114797;28;20448;-67
2022/10/01 09:37:54;;;;;;;3.15;1.10;;;;;;;;;;5114062;28;20402;-69
2022/10/01 09:40:23;;;;;;;1.98;1.10;;;;;;;;;;5028825;28;20041;-64
2022/10/01 09:42:50;;;;;;;4.43;1.10;;;;;;;;;;5041260;28;20144;-64
2022/10/01 09:45:18;;;;;;;3.85;1.30;;;;;;;;;;5047197;28;20116;-62
2022/10/01 09:47:49;;;;;;;3.83;1.10;;;;;;;;;;5043224;28;20068;-63
2022/10/01 09:50:23;;;;;;;3.95;1.65;;;;;;;;;;5032736;28;20053;-71
2022/10/01 09:52:51;;;;;;;4.20;1.70;;;;;;;;;;5044320;28;20053;-66
2022/10/01 09:55:17;;;;;;;4.07;2.15;;;;;;;;;;5042917;28;20051;-68
2022/10/01 09:58:07;;;;;;;8.70;2.28;;;;;;;;;;5047997;28;20048;-71
2022/10/01 10:00:36;;;;;;;8.00;3.05;;;;;;;;;;5049234;28;20045;-68
2022/10/01 10:03:02;;;;;;;7.63;2.50;;;;;;;;;;5049807;28;20049;-70
2022/10/01 10:05:38;;;;;;;5.22;2.10;;;;;;;;;;5020149;28;20091;-68
2022/10/01 10:08:13;;;;;;;3.45;1.58;;;;;;;;;;5042409;28;20049;-70
2022/10/01 10:10:39;;;;;;;;;;;;;;;;;;5066465;28;20044;-64
2022/10/01 10:13:08;;;;;;;3.40;0.98;;;;;;;;;;5109081;28;20432;-69
2022/10/01 10:15:35;;;;;;;2.85;1.27;;;;;;;;;;5103671;28;20199;-65
2022/10/01 10:18:16;;;;;;;3.10;1.45;;;;;;;;;;5103088;28;20051;-66
2022/10/01 10:20:44;;;;;;;4.13;1.92;;;;;;;;;;5103774;28;20039;-66
2022/10/01 10:23:15;;;;;;;3.83;1.55;;;;;;;;;;5098906;27;20043;-65
2022/10/01 10:25:41;;;;;;;3.03;1.35;;;;;;;;;;5103444;28;20037;-63
2022/10/01 10:28:22;;;;;;;4.40;1.65;;;;;;;;;;5106694;28;20048;-72
2022/10/01 10:30:53;;;;;;;3.85;1.50;;;;;;;;;;5108480;28;20089;-66
2022/10/01 10:33:21;;;;;;;6.28;2.10;;;;;;;;;;5097606;28;20046;-64
2022/10/01 10:36:00;;;;;;;3.85;1.33;;;;;;;;;;5105130;28;20071;-65
2022/10/01 10:38:31;;;;;;;3.83;1.23;;;;;;;;;;5102223;28;20119;-66
2022/10/01 10:40:59;;;;;;;3.33;1.30;;;;;;;;;;5089324;28;20683;-66
2022/10/01 10:43:29;;;;;;;24.02;5.28;;;;;;;;;;5105211;28;20382;-71
2022/10/01 10:45:56;;;;;;;11.35;3.13;;;;;;;;;;5109921;28;20044;-63
2022/10/01 10:48:44;;;;;;;5.60;1.38;;;;;;;;;;5104354;28;20043;-68
2022/10/01 10:51:10;;;;;;;3.80;1.20;;;;;;;;;;5109362;28;20500;-66
2022/10/01 10:53:40;;;;;;;5.13;1.65;;;;;;;;;;5107157;28;20043;-64
2022/10/01 10:56:21;;;;;;;4.35;1.40;;;;;;;;;;5106690;28;20054;-69
2022/10/01 10:58:48;;;;;;;2.90;0.93;;;;;;;;;;5103455;28;20115;-64
2022/10/01 11:01:20;;;;;;;2.78;1.10;;;;;;;;;;5101277;28;20083;-71
2022/10/01 11:03:54;;;;;;;7.90;1.55;;;;;;;;;;5101032;28;20139;-65
2022/10/01 11:06:21;;;;;;;3.47;1.30;;;;;;;;;;5108171;28;20043;-67
2022/10/01 11:08:59;;;;;;;6.93;2.42;;;;;;;;;;5107879;28;20539;-68
2022/10/01 11:11:52;;;;;;;4.20;1.55;;;;;;;;;;5097865;28;20061;-65
2022/10/01 11:14:42;;;;;;;3.75;1.15;;;;;;;;;;5107440;28;20165;-67
2022/10/01 11:17:39;;;;;;;4.72;1.38;;;;;;;;;;5112782;28;20078;-67
2022/10/01 11:20:37;;;;;;;4.97;1.83;;;;;;;;;;5108244;28;20067;-63
2022/10/01 11:23:19;;;;;;;5.15;1.45;;;;;;;;;;5106647;28;20589;-63
2022/10/01 11:26:00;;;;;;;7.95;2.03;;;;;;;;;;5107015;28;20451;-67
2022/10/01 11:28:56;;;;;;;2.92;1.00;;;;;;;;;;5108763;28;20043;-66
2022/10/01 11:31:49;;;;;;;3.75;1.17;;;;;;;;;;5107848;28;20039;-64
2022/10/01 11:34:40;;;;;;;1.23;0.90;;;;;;;;;;5107830;28;20040;-66
2022/10/01 11:37:30;;;;;;;1.33;0.68;;;;;;;;;;5106296;28;20043;-62
2022/10/01 11:40:02;;;;;;;1.08;0.70;;;;;;;;;;5107564;28;20047;-63
2022/10/01 11:42:35;;;;;;;3.22;1.30;;;;;;;;;;5104320;28;20490;-62
2022/10/01 11:45:10;;;;;;;2.60;0.88;;;;;;;;;;5110384;28;20058;-65
2022/10/01 11:47:43;;;;;;;4.80;1.13;;;;;;;;;;5106222;28;20487;-70
2022/10/01 11:50:24;;;;;;;3.63;1.60;;;;;;;;;;5105086;28;20446;-64
2022/10/01 11:53:08;;;;;;;5.78;0.90;;;;;;;;;;5107281;28;20727;-63
2022/10/01 11:58:51;;;;;;;2.03;0.98;;;;;;;;;;5107174;28;20050;-71
2022/10/01 12:01:23;;;;;;;2.17;1.10;;;;;;;;;;5096344;28;20051;-68
2022/10/01 12:03:51;;;;;;;5.00;0.93;;;;;;;;;;5098471;28;20056;-67
2022/10/01 12:06:29;;;;;;;4.30;0.90;;;;;;;;;;5109367;28;20051;-65
2022/10/01 12:09:42;;;;;;;1.67;0.70;;;;;;;;;;5111125;27;20152;-64
2022/10/01 12:12:14;;;;;;;1.05;0.60;;;;;;;;;;5077495;28;20122;-68
2022/10/01 12:14:47;;;;;;;3.75;0.98;;;;;;;;;;5109302;28;20405;-73
2022/10/01 12:17:24;;;;;;;1.85;0.57;;;;;;;;;;5110680;28;20471;-64
2022/10/01 12:19:53;;;;;;;2.28;0.63;;;;;;;;;;5116296;27;20043;-66
2022/10/01 12:22:25;;;;;;;2.72;0.80;;;;;;;;;;5113650;28;20131;-65
2022/10/01 12:24:53;;;;;;;1.55;0.50;;;;;;;;;;5113050;27;20047;-66
2022/10/01 12:27:33;;;;;;;1.27;0.70;;;;;;;;;;5114023;28;20077;-65
2022/10/01 12:30:02;;;;;;;1.60;1.00;;;;;;;;;;5112873;28;20047;-75
2022/10/01 12:32:34;;;;;;;2.70;0.95;;;;;;;;;;5103364;28;20036;-64
2022/10/01 12:35:10;;;;;;;2.30;1.00;;;;;;;;;;5106153;28;20382;-64
2022/10/01 12:37:58;;;;;;;0.88;0.65;;;;;;;;;;5103927;28;20108;-62
2022/10/01 12:40:48;;;;;;;4.13;0.90;;;;;;;;;;5115050;28;20051;-62
2022/10/01 12:43:22;;;;;;;1.20;0.60;;;;;;;;;;5109824;28;20458;-65
2022/10/01 12:46:23;;;;;;;3.10;1.00;;;;;;;;;;5104217;28;20345;-65
2022/10/01 12:49:08;;;;;;;2.15;0.77;;;;;;;;;;5110982;28;20501;-67
2022/10/01 12:51:44;;;;;;;1.20;0.80;;;;;;;;;;5111962;28;20163;-71
2022/10/01 12:54:51;;;;;;;2.55;0.60;;;;;;;;;;5095254;28;20101;-65
2022/10/01 12:57:39;;;;;;;2.17;0.70;;;;;;;;;;5108190;28;20052;-68
2022/10/01 13:00:23;;;;;;;3.08;1.40;;;;;;;;;;5110915;28;20051;-66
2022/10/01 13:02:55;;;;;;;3.13;1.00;;;;;;;;;;5109884;28;20452;-67
2022/10/01 13:05:50;;;;;;;2.83;0.70;;;;;;;;;;5112985;28;20485;-64
2022/10/01 13:08:16;;;;;;;1.60;0.80;;;;;;;;;;5112147;28;20454;-71
2022/10/01 13:11:06;;;;;;;2.50;0.77;;;;;;;;;;5111840;28;20044;-66
2022/10/01 13:13:32;;;;;;;3.03;1.20;;;;;;;;;;5104307;28;20047;-68
2022/10/01 13:16:19;;;;;;;2.58;0.80;;;;;;;;;;5109299;28;20057;-70
2022/10/01 13:19:04;;;;;;;2.50;1.00;;;;;;;;;;5106936;28;20540;-70
2022/10/01 13:21:48;;;;;;;;;;;;;;;;;;5099607;28;20059;-65
2022/10/01 13:24:38;;;;;;;2.95;0.80;;;;;;;;;;5110575;28;19920;-72
2022/10/01 13:27:11;;;;;;;2.42;0.70;;;;;;;;;;5103480;28;20100;-66
2022/10/01 13:29:58;;;;;;;1.38;0.90;;;;;;;;;;5109499;28;20044;-63
2022/10/01 13:32:33;;;;;;;3.70;1.80;;;;;;;;;;5111193;28;20052;-69
2022/10/01 13:35:02;;;;;;;2.05;0.88;;;;;;;;;;5109358;27;20123;-67
2022/10/01 13:37:38;;;;;;;2.25;1.13;;;;;;;;;;5105509;28;20051;-71
2022/10/01 13:40:33;;;;;;;3.10;0.63;;;;;;;;;;5098624;28;20119;-70
2022/10/01 13:43:18;;;;;;;2.55;0.85;;;;;;;;;;5112002;27;20431;-67
2022/10/01 13:45:46;;;;;;;1.83;0.60;;;;;;;;;;5106995;27;20047;-65
2022/10/01 13:48:23;;;;;;;1.40;0.73;;;;;;;;;;5109263;28;20047;-64
2022/10/01 13:51:01;;;;;;;3.42;0.70;;;;;;;;;;5098161;28;20092;-65
2022/10/01 13:53:29;;;;;;;1.05;0.70;;;;;;;;;;5108890;28;20059;-66
2022/10/01 13:55:55;;;;;;;2.55;0.95;;;;;;;;;;5110666;28;20569;-64
2022/10/01 13:58:45;;;;;;;1.90;1.20;;;;;;;;;;5112583;28;20248;-75
2022/10/01 14:01:20;;;;;;;2.00;0.90;;;;;;;;;;5098937;28;20447;-74
2022/10/01 14:04:03;;;;;;;1.05;0.73;;;;;;;;;;5110262;28;20040;-67
2022/10/01 14:06:35;;;;;;;2.25;1.10;;;;;;;;;;5110612;28;20058;-66
2022/10/01 14:09:30;;;;;;;3.70;0.90;;;;;;;;;;5109352;27;20040;-73
2022/10/01 14:17:42;;;;;;;1.77;0.65;;;;;;;;;;5106857;28;20051;-62
2022/10/01 14:20:15;;;;;;;0.82;0.65;;;;;;;;;;5109822;28;20554;-65
2022/10/01 14:23:02;;;;;;;2.53;0.70;;;;;;;;;;5109968;28;20051;-70
2022/10/01 14:25:51;;;;;;;4.85;0.70;;;;;;;;;;5111771;28;20043;-70
2022/10/01 14:28:23;;;;;;;1.98;0.80;;;;;;;;;;5099265;28;20051;-65
2022/10/01 14:31:20;;;;;;;3.13;0.65;;;;;;;;;;5110070;28;20039;-69
2022/10/01 14:33:52;;;;;;;2.85;0.60;;;;;;;;;;5108641;28;20066;-66
2022/10/01 14:36:33;;;;;;;1.67;0.70;;;;;;;;;;5094201;28;20062;-62
2022/10/01 14:39:19;;;;;;;1.55;0.68;;;;;;;;;;5108531;28;20052;-65
2022/10/01 14:41:48;;;;;;;2.55;0.65;;;;;;;;;;5093874;28;20557;-64
2022/10/01 14:44:33;;;;;;;1.48;0.57;;;;;;;;;;5109518;28;20054;-72
2022/10/01 14:47:10;;;;;;;1.70;0.90;;;;;;;;;;5098780;28;20054;-73
2022/10/01 14:49:36;;;;;;;2.33;0.80;;;;;;;;;;5115591;27;20048;-74
2022/10/01 14:52:04;;;;;;;4.63;1.10;;;;;;;;;;5110503;28;20056;-64
2022/10/01 14:54:55;;;;;;;5.07;1.00;;;;;;;;;;5104286;28;20050;-66
2022/10/01 14:57:34;;;;;;;2.80;0.80;;;;;;;;;;5108928;28;20104;-70
2022/10/01 15:00:07;;;;;;;3.17;0.70;;;;;;;;;;5109793;28;20427;-64
2022/10/01 15:02:33;;;;;;;;;;;;;;;;;;5104819;28;20124;-69
2022/10/01 15:04:59;;;;;;;4.85;0.93;;;;;;;;;;5103770;28;20395;-63
2022/10/01 15:07:33;;;;;;;4.30;1.05;;;;;;;;;;5098883;28;20051;-70
2022/10/01 15:10:07;;;;;;;3.28;1.00;;;;;;;;;;5099361;28;20126;-69
2022/10/01 15:12:38;;;;;;;2.33;0.90;;;;;;;;;;5102898;28;20069;-72
2022/10/01 15:15:18;;;;;;;6.35;1.08;;;;;;;;;;5105377;28;20480;-71
2022/10/01 15:17:44;;;;;;;2.03;0.90;;;;;;;;;;5102143;28;20063;-67
2022/10/01 15:20:11;;;;;;;3.45;0.82;;;;;;;;;;5098783;28;20044;-66
2022/10/01 15:22:38;;;;;;;2.58;0.90;;;;;;;;;;5098559;28;20505;-65
2022/10/01 15:25:04;;;;;;;1.30;0.57;;;;;;;;;;5098284;28;20071;-62